createdAt,value
2023-02-19T00:00:51.698Z,17.50
2023-02-19T00:03:22.825Z,17.40
2023-02-19T00:05:54.206Z,17.60
2023-02-19T00:08:25.165Z,17.40
2023-02-19T00:11:05.821Z,17.50
2023-02-19T00:13:43.142Z,17.30
2023-02-19T00:16:18.622Z,17.20
2023-02-19T00:18:49.525Z,17.20
2023-02-19T00:21:21.072Z,17.50
2023-02-19T00:23:58.113Z,17.60
2023-02-19T00:26:29.556Z,17.50
2023-02-19T00:29:02.014Z,17.30
2023-02-19T00:31:35.589Z,17.30
2023-02-19T00:34:07.656Z,17.40
2023-02-19T00:36:41.750Z,17.50
2023-02-19T00:39:16.259Z,17.70
2023-02-19T00:41:47.550Z,17.40
2023-02-19T00:44:18.554Z,17.60
2023-02-19T00:46:49.523Z,17.50
2023-02-19T00:49:23.231Z,17.40
2023-02-19T00:51:54.204Z,17.40
2023-02-19T00:54:25.244Z,17.20
2023-02-19T00:56:56.136Z,17.50
2023-02-19T00:59:27.069Z,17.50
2023-02-19T01:01:57.934Z,17.70
2023-02-19T01:04:28.999Z,17.60
2023-02-19T01:06:59.905Z,17.60
2023-02-19T01:09:30.759Z,17.70
2023-02-19T01:12:01.648Z,17.70
2023-02-19T01:14:33.054Z,17.60
2023-02-19T01:17:04.540Z,17.60
2023-02-19T01:19:35.398Z,17.90
2023-02-19T01:22:06.306Z,18.00
2023-02-19T01:24:37.159Z,17.90
2023-02-19T01:27:08.132Z,17.80
2023-02-19T01:29:39.085Z,17.80
2023-02-19T01:32:10.102Z,17.60
2023-02-19T01:34:41.123Z,17.90
2023-02-19T01:37:12.167Z,18.00
2023-02-19T01:39:43.096Z,18.20
2023-02-19T01:42:17.011Z,18.00
2023-02-19T01:44:47.874Z,18.30
2023-02-19T01:47:20.407Z,18.10
2023-02-19T01:49:56.875Z,17.50
2023-02-19T01:52:34.933Z,17.70
2023-02-19T01:55:09.186Z,18.10
2023-02-19T01:57:48.689Z,17.60
2023-02-19T02:00:20.155Z,17.20
2023-02-19T02:02:54.494Z,17.40
2023-02-19T02:05:57.738Z,17.70
2023-02-19T02:08:48.887Z,16.80
2023-02-19T02:11:20.640Z,16.50
2023-02-19T02:13:52.267Z,16.90
2023-02-19T02:16:30.568Z,16.80
2023-02-19T02:19:04.450Z,17.20
2023-02-19T02:22:02.860Z,17.50
2023-02-19T02:25:33.984Z,16.80
2023-02-19T02:28:42.167Z,16.10
2023-02-19T02:31:21.102Z,15.80
2023-02-19T02:34:03.544Z,15.60
2023-02-19T02:36:39.968Z,15.30
2023-02-19T02:39:17.445Z,16.30
2023-02-19T02:42:17.050Z,16.50
2023-02-19T02:45:07.916Z,16.60
2023-02-19T02:47:54.524Z,16.70
2023-02-19T02:50:36.263Z,16.50
2023-02-19T02:53:33.960Z,16.20
2023-02-19T02:56:05.906Z,16.90
2023-02-19T02:58:37.569Z,16.70
2023-02-19T03:01:52.190Z,16.80
2023-02-19T03:04:33.057Z,16.70
2023-02-19T03:07:09.632Z,16.00
2023-02-19T03:09:43.232Z,16.70
2023-02-19T03:12:44.069Z,16.70
2023-02-19T03:15:35.708Z,17.10
2023-02-19T03:18:28.705Z,16.60
2023-02-19T03:21:02.722Z,16.30
2023-02-19T03:23:53.689Z,16.50
2023-02-19T03:26:26.627Z,16.40
2023-02-19T03:29:16.509Z,15.50
2023-02-19T03:31:50.885Z,15.90
2023-02-19T03:34:29.104Z,16.40
2023-02-19T03:37:12.581Z,16.50
2023-02-19T03:39:46.952Z,16.50
2023-02-19T03:42:39.931Z,16.50
2023-02-19T03:45:38.680Z,16.70
2023-02-19T03:48:34.507Z,16.80
2023-02-19T03:51:17.988Z,16.80
2023-02-19T03:54:34.650Z,16.20
2023-02-19T03:57:24.528Z,16.90
2023-02-19T04:00:28.337Z,16.80
2023-02-19T04:03:09.401Z,16.60
2023-02-19T04:05:50.653Z,16.60
2023-02-19T04:08:24.531Z,17.00
2023-02-19T04:10:58.350Z,17.00
2023-02-19T04:13:51.306Z,17.00
2023-02-19T04:16:28.669Z,17.20
2023-02-19T04:19:14.980Z,16.50
2023-02-19T04:21:47.912Z,16.70
2023-02-19T04:24:47.363Z,17.00
2023-02-19T04:27:19.180Z,17.00
2023-02-19T04:29:50.035Z,17.00
2023-02-19T04:32:21.102Z,17.10
2023-02-19T04:34:54.162Z,16.60
2023-02-19T04:37:25.236Z,16.60
2023-02-19T04:39:56.083Z,17.00
2023-02-19T04:42:27.003Z,17.00
2023-02-19T04:44:57.841Z,16.30
2023-02-19T04:47:28.780Z,16.30
2023-02-19T04:49:59.678Z,15.80
2023-02-19T04:52:30.658Z,16.10
2023-02-19T04:55:01.597Z,16.00
2023-02-19T04:57:32.532Z,15.80
2023-02-19T05:00:04.761Z,15.70
2023-02-19T05:02:36.045Z,15.80
2023-02-19T05:05:07.210Z,16.20
2023-02-19T05:07:38.437Z,16.80
2023-02-19T05:10:09.371Z,16.70
2023-02-19T05:12:40.272Z,16.30
2023-02-19T05:15:11.136Z,16.30
2023-02-19T05:17:42.056Z,15.90
2023-02-19T05:20:12.969Z,15.90
2023-02-19T05:22:43.851Z,16.10
2023-02-19T05:25:14.864Z,15.70
2023-02-19T05:27:45.826Z,15.80
2023-02-19T05:30:16.776Z,16.00
2023-02-19T05:32:47.654Z,15.80
2023-02-19T05:35:18.531Z,15.60
2023-02-19T05:37:49.400Z,15.40
2023-02-19T05:40:20.253Z,15.50
2023-02-19T05:42:51.148Z,16.00
2023-02-19T05:45:22.070Z,15.80
2023-02-19T05:47:52.971Z,15.50
2023-02-19T05:50:24.122Z,15.80
2023-02-19T05:52:55.096Z,16.00
2023-02-19T05:55:25.990Z,15.80
2023-02-19T05:57:56.864Z,15.80
2023-02-19T06:00:27.926Z,15.90
2023-02-19T06:02:58.866Z,15.30
2023-02-19T06:05:29.762Z,15.30
2023-02-19T06:08:00.655Z,15.70
2023-02-19T06:10:31.584Z,15.80
2023-02-19T06:13:02.494Z,15.70
2023-02-19T06:15:33.361Z,15.70
2023-02-19T06:18:04.593Z,15.60
2023-02-19T06:20:35.538Z,16.10
2023-02-19T06:23:06.441Z,16.20
2023-02-19T06:25:37.347Z,15.90
2023-02-19T06:28:10.490Z,15.60
2023-02-19T06:30:41.342Z,15.70
2023-02-19T06:33:14.088Z,16.10
2023-02-19T06:35:45.186Z,16.10
2023-02-19T06:38:16.059Z,16.30
2023-02-19T06:40:46.921Z,16.00
2023-02-19T06:43:18.226Z,15.70
2023-02-19T06:45:49.233Z,15.70
2023-02-19T06:48:20.276Z,15.50
2023-02-19T06:50:51.148Z,15.30
2023-02-19T06:53:22.684Z,15.50
2023-02-19T06:56:03.971Z,15.50
2023-02-19T06:58:35.370Z,15.60
2023-02-19T07:01:06.317Z,15.60
2023-02-19T07:03:37.219Z,15.90
2023-02-19T07:06:08.228Z,15.50
2023-02-19T07:08:39.179Z,15.40
2023-02-19T07:11:10.458Z,15.40
2023-02-19T07:13:41.640Z,15.10
2023-02-19T07:16:13.877Z,15.70
2023-02-19T07:18:44.791Z,16.00
2023-02-19T07:21:17.040Z,15.60
2023-02-19T07:23:47.904Z,15.50
2023-02-19T07:26:20.509Z,16.30
2023-02-19T07:28:52.378Z,16.40
2023-02-19T07:31:24.778Z,16.10
2023-02-19T07:33:55.973Z,16.00
2023-02-19T07:36:26.895Z,15.90
2023-02-19T07:38:59.476Z,16.30
2023-02-19T07:41:30.385Z,16.20
2023-02-19T07:44:01.241Z,15.90
2023-02-19T07:46:32.247Z,15.70
2023-02-19T07:49:03.127Z,15.80
2023-02-19T07:51:34.154Z,16.40
2023-02-19T07:54:05.172Z,16.50
2023-02-19T07:56:36.080Z,16.60
2023-02-19T07:59:06.984Z,16.50
2023-02-19T08:01:56.380Z,15.60
2023-02-19T08:04:27.463Z,15.60
2023-02-19T08:06:58.360Z,15.50
2023-02-19T08:09:29.695Z,15.50
2023-02-19T08:12:19.357Z,15.70
2023-02-19T08:14:50.230Z,15.60
2023-02-19T08:17:21.187Z,15.50
2023-02-19T08:19:52.080Z,15.80
2023-02-19T08:22:22.987Z,15.60
2023-02-19T08:24:53.835Z,15.90
2023-02-19T08:27:24.767Z,16.40
2023-02-19T08:29:55.692Z,16.40
2023-02-19T08:32:26.599Z,16.50
2023-02-19T08:34:57.466Z,16.40
2023-02-19T08:37:28.341Z,16.00
2023-02-19T08:39:59.188Z,16.80
2023-02-19T08:42:30.200Z,17.50
2023-02-19T08:45:01.096Z,16.60
2023-02-19T08:47:32.414Z,16.10
2023-02-19T08:50:05.105Z,15.90
2023-02-19T08:52:36.196Z,15.50
2023-02-19T08:55:07.718Z,16.00
2023-02-19T08:57:39.587Z,16.00
2023-02-19T09:00:12.193Z,16.60
2023-02-19T09:02:43.499Z,16.30
2023-02-19T09:05:15.231Z,16.70
2023-02-19T09:07:46.199Z,15.40
2023-02-19T09:10:17.171Z,15.60
2023-02-19T09:12:48.211Z,15.80
2023-02-19T09:15:19.068Z,16.20
2023-02-19T09:17:53.812Z,16.00
2023-02-19T09:20:25.253Z,15.50
2023-02-19T09:23:01.006Z,15.40
2023-02-19T09:25:32.283Z,15.60
2023-02-19T09:28:03.416Z,15.80
2023-02-19T09:30:34.414Z,15.70
2023-02-19T09:33:07.829Z,15.50
2023-02-19T09:35:40.788Z,16.00
2023-02-19T09:38:12.251Z,16.90
2023-02-19T09:40:43.886Z,16.70
2023-02-19T09:43:22.420Z,16.10
2023-02-19T09:46:24.838Z,16.40
2023-02-19T09:49:13.743Z,16.10
2023-02-19T09:52:12.917Z,16.20
2023-02-19T09:54:45.324Z,16.70
2023-02-19T09:57:21.124Z,16.50
2023-02-19T10:00:13.157Z,16.60
2023-02-19T10:02:44.117Z,16.70
2023-02-19T10:05:16.940Z,16.90
2023-02-19T10:07:51.885Z,16.60
2023-02-19T10:10:32.374Z,16.20
2023-02-19T10:13:22.344Z,16.80
2023-02-19T10:15:57.607Z,17.00
2023-02-19T10:18:41.240Z,17.70
2023-02-19T10:21:27.441Z,17.40
2023-02-19T10:24:02.013Z,16.60
2023-02-19T10:26:36.537Z,16.70
2023-02-19T10:29:07.381Z,16.40
2023-02-19T10:31:38.407Z,16.50
2023-02-19T10:34:22.423Z,17.40
2023-02-19T10:36:53.531Z,17.40
2023-02-19T10:39:49.866Z,17.00
2023-02-19T10:42:23.121Z,16.30
2023-02-19T10:45:01.911Z,16.90
2023-02-19T10:47:33.547Z,17.30
2023-02-19T10:50:04.930Z,17.10
2023-02-19T10:52:36.674Z,16.80
2023-02-19T10:55:36.087Z,16.50
2023-02-19T10:58:27.717Z,17.30
2023-02-19T11:01:19.872Z,16.60
2023-02-19T11:03:53.632Z,16.50
2023-02-19T11:06:27.574Z,17.00
2023-02-19T11:09:00.733Z,17.00
2023-02-19T11:11:38.180Z,16.10
2023-02-19T11:14:19.561Z,16.60
2023-02-19T11:16:59.593Z,16.60
2023-02-19T11:19:43.322Z,16.60
2023-02-19T11:22:35.802Z,16.60
2023-02-19T11:25:14.577Z,16.20
2023-02-19T11:27:58.315Z,16.00
2023-02-19T11:30:43.176Z,16.30
2023-02-19T11:33:17.098Z,16.10
2023-02-19T11:35:55.355Z,15.90
2023-02-19T11:38:26.551Z,16.10
2023-02-19T11:41:24.159Z,16.00
2023-02-19T11:44:09.763Z,16.50
2023-02-19T11:46:50.158Z,17.20
2023-02-19T11:49:50.097Z,17.00
2023-02-19T11:52:35.897Z,16.50
2023-02-19T11:55:38.193Z,16.90
2023-02-19T11:58:58.524Z,17.20
2023-02-19T12:01:40.032Z,16.50
2023-02-19T12:04:53.463Z,16.80
2023-02-19T12:08:30.327Z,16.50
2023-02-19T12:11:37.847Z,16.70
2023-02-19T12:14:46.086Z,16.80
2023-02-19T12:18:04.267Z,16.90
2023-02-19T12:20:50.175Z,17.10
2023-02-19T12:24:12.906Z,16.40
2023-02-19T12:27:16.579Z,16.10
2023-02-19T12:30:31.908Z,16.40
2023-02-19T12:33:35.248Z,17.20
2023-02-19T12:36:32.905Z,16.80
2023-02-19T12:39:41.508Z,17.20
2023-02-19T12:42:43.888Z,17.40
2023-02-19T12:45:39.465Z,17.60
2023-02-19T12:48:35.359Z,16.70
2023-02-19T12:51:25.950Z,17.20
2023-02-19T12:54:02.016Z,17.30
2023-02-19T12:57:00.458Z,17.20
2023-02-19T12:59:48.929Z,17.30
2023-02-19T13:02:34.736Z,17.20
2023-02-19T13:05:35.158Z,17.20
2023-02-19T13:08:35.585Z,17.40
2023-02-19T13:11:17.522Z,17.00
2023-02-19T13:13:56.185Z,16.90
2023-02-19T13:16:33.479Z,16.90
2023-02-19T13:19:05.547Z,16.90
2023-02-19T13:21:56.653Z,16.80
2023-02-19T13:24:33.938Z,17.00
2023-02-19T13:27:43.674Z,17.30
2023-02-19T13:30:42.088Z,17.30
2023-02-19T13:33:37.278Z,17.20
2023-02-19T13:36:22.587Z,17.30
2023-02-19T13:38:57.196Z,17.00
2023-02-19T13:41:33.896Z,16.10
2023-02-19T13:44:11.127Z,16.30
2023-02-19T13:46:45.937Z,15.90
2023-02-19T13:49:34.512Z,16.30
2023-02-19T13:52:30.585Z,16.30
2023-02-19T13:55:52.060Z,16.30
2023-02-19T13:58:57.114Z,17.00
2023-02-19T14:01:50.258Z,17.00
2023-02-19T14:04:50.344Z,15.90
2023-02-19T14:07:36.929Z,16.60
2023-02-19T14:10:15.245Z,16.50
2023-02-19T14:12:46.254Z,16.30
2023-02-19T14:15:44.167Z,16.20
2023-02-19T14:18:46.749Z,15.90
2023-02-19T14:21:35.688Z,15.80
2023-02-19T14:24:13.494Z,15.70
2023-02-19T14:26:44.856Z,15.90
2023-02-19T14:29:16.846Z,16.60
2023-02-19T14:31:48.085Z,16.70
2023-02-19T14:34:26.918Z,16.00
2023-02-19T14:37:02.325Z,16.00
2023-02-19T14:39:39.210Z,16.20
2023-02-19T14:42:32.554Z,16.50
2023-02-19T14:45:07.622Z,16.30
2023-02-19T14:47:38.750Z,16.10
2023-02-19T14:50:21.668Z,16.70
2023-02-19T14:52:56.677Z,16.80
2023-02-19T14:55:40.364Z,16.60
2023-02-19T14:58:19.732Z,16.10
2023-02-19T15:00:50.679Z,16.30
2023-02-19T15:03:37.180Z,16.30
2023-02-19T15:06:16.451Z,16.60
2023-02-19T15:08:50.291Z,16.50
2023-02-19T15:11:25.214Z,16.60
2023-02-19T15:14:10.997Z,16.30
2023-02-19T15:16:42.167Z,17.00
2023-02-19T15:19:16.265Z,16.80
2023-02-19T15:21:49.870Z,16.50
2023-02-19T15:24:20.981Z,16.60
2023-02-19T15:27:01.104Z,17.30
2023-02-19T15:29:33.597Z,16.60
2023-02-19T15:32:26.319Z,16.30
2023-02-19T15:35:00.587Z,16.70
2023-02-19T15:37:33.975Z,16.80
2023-02-19T15:40:14.654Z,16.90
2023-02-19T15:42:47.331Z,16.60
2023-02-19T15:45:27.559Z,16.50
2023-02-19T15:48:28.509Z,16.90
2023-02-19T15:51:10.236Z,16.40
2023-02-19T15:53:49.874Z,16.60
2023-02-19T15:56:30.526Z,16.30
2023-02-19T15:59:27.256Z,16.30
2023-02-19T16:02:02.222Z,16.20
2023-02-19T16:04:35.819Z,16.50
2023-02-19T16:07:06.818Z,16.50
2023-02-19T16:09:39.722Z,16.80
2023-02-19T16:12:23.132Z,17.70
2023-02-19T16:14:56.507Z,17.70
2023-02-19T16:17:28.337Z,17.20
2023-02-19T16:20:02.340Z,17.20
2023-02-19T16:22:42.776Z,16.40
2023-02-19T16:25:29.024Z,16.30
2023-02-19T16:28:00.064Z,17.00
2023-02-19T16:30:34.273Z,16.90
2023-02-19T16:33:44.346Z,17.30
2023-02-19T16:36:41.921Z,16.90
2023-02-19T16:39:16.154Z,16.60
2023-02-19T16:41:47.369Z,16.70
2023-02-19T16:44:21.065Z,16.70
2023-02-19T16:46:58.064Z,16.70
2023-02-19T16:49:29.417Z,16.40
2023-02-19T16:52:04.152Z,16.00
2023-02-19T16:54:35.392Z,16.20
2023-02-19T16:57:06.414Z,16.10
2023-02-19T16:59:37.328Z,16.30
2023-02-19T17:02:10.936Z,16.90
2023-02-19T17:04:42.002Z,16.60
2023-02-19T17:07:17.884Z,16.50
2023-02-19T17:09:48.895Z,16.90
2023-02-19T17:12:24.120Z,15.80
2023-02-19T17:14:55.055Z,16.30
2023-02-19T17:17:26.500Z,17.00
2023-02-19T17:19:57.433Z,16.20
2023-02-19T17:22:28.482Z,16.70
2023-02-19T17:24:59.434Z,16.30
2023-02-19T17:27:30.369Z,16.20
2023-02-19T17:30:01.343Z,16.10
2023-02-19T17:32:35.548Z,16.40
2023-02-19T17:35:09.820Z,16.50
2023-02-19T17:37:40.741Z,16.70
2023-02-19T17:40:33.455Z,15.80
2023-02-19T17:43:06.527Z,16.10
2023-02-19T17:45:37.789Z,16.40
2023-02-19T17:48:13.608Z,16.10
2023-02-19T17:50:44.567Z,16.20
2023-02-19T17:53:15.467Z,16.60
2023-02-19T17:55:46.518Z,16.20
2023-02-19T17:58:17.433Z,16.30
2023-02-19T18:00:48.348Z,16.30
2023-02-19T18:03:19.208Z,15.90
2023-02-19T18:05:50.160Z,16.40
2023-02-19T18:08:21.027Z,16.20
2023-02-19T18:10:52.686Z,15.80
2023-02-19T18:13:23.579Z,15.70
2023-02-19T18:15:54.594Z,15.90
2023-02-19T18:18:25.504Z,15.90
2023-02-19T18:20:56.371Z,15.50
2023-02-19T18:23:27.244Z,16.10
2023-02-19T18:25:58.155Z,15.90
2023-02-19T18:28:31.566Z,16.00
2023-02-19T18:31:03.464Z,16.20
2023-02-19T18:33:35.350Z,16.20
2023-02-19T18:36:11.675Z,17.00
2023-02-19T18:38:46.039Z,16.70
2023-02-19T18:41:20.226Z,16.60
2023-02-19T18:43:51.652Z,16.70
2023-02-19T18:46:22.700Z,16.60
2023-02-19T18:48:53.593Z,16.90
2023-02-19T18:51:24.630Z,16.80
2023-02-19T18:54:07.001Z,17.20
2023-02-19T18:56:46.107Z,16.50
2023-02-19T18:59:17.183Z,16.50
2023-02-19T19:01:48.284Z,17.60
2023-02-19T19:04:19.358Z,17.40
2023-02-19T19:06:50.334Z,16.90
2023-02-19T19:09:21.341Z,16.20
2023-02-19T19:11:52.296Z,16.30
2023-02-19T19:14:24.064Z,16.40
2023-02-19T19:16:55.162Z,16.50
2023-02-19T19:19:26.124Z,16.00
2023-02-19T19:21:57.558Z,15.60
2023-02-19T19:24:28.506Z,16.00
2023-02-19T19:26:59.460Z,15.90
2023-02-19T19:29:30.618Z,15.70
2023-02-19T19:32:01.773Z,15.70
2023-02-19T19:34:32.904Z,15.60
2023-02-19T19:37:03.966Z,16.00
2023-02-19T19:39:34.839Z,16.20
2023-02-19T19:42:07.830Z,16.50
2023-02-19T19:44:38.789Z,15.90
2023-02-19T19:47:09.789Z,15.60
2023-02-19T19:49:41.261Z,15.40
2023-02-19T19:52:12.168Z,15.50
2023-02-19T19:54:46.904Z,15.90
2023-02-19T19:57:17.861Z,15.70
2023-02-19T19:59:51.158Z,16.50
2023-02-19T20:02:24.377Z,16.60
2023-02-19T20:04:58.100Z,16.90
2023-02-19T20:07:29.301Z,16.80
2023-02-19T20:10:00.340Z,16.50
2023-02-19T20:12:31.271Z,16.60
2023-02-19T20:15:02.490Z,16.10
2023-02-19T20:17:36.861Z,16.90
2023-02-19T20:20:08.793Z,16.30
2023-02-19T20:22:42.773Z,15.90
2023-02-19T20:25:14.396Z,15.90
2023-02-19T20:27:57.970Z,16.00
2023-02-19T20:30:29.284Z,16.10
2023-02-19T20:33:00.421Z,15.90
2023-02-19T20:35:31.879Z,16.40
2023-02-19T20:38:03.049Z,16.20
2023-02-19T20:40:35.466Z,16.20
2023-02-19T20:43:06.358Z,16.50
2023-02-19T20:45:37.361Z,15.90
2023-02-19T20:48:09.708Z,16.20
2023-02-19T20:50:40.564Z,16.20
2023-02-19T20:53:11.801Z,15.80
2023-02-19T20:55:42.668Z,15.90
2023-02-19T20:58:13.651Z,15.90
2023-02-19T21:00:45.798Z,16.30
2023-02-19T21:03:25.530Z,16.80
2023-02-19T21:05:58.042Z,16.90
2023-02-19T21:08:28.945Z,16.80
2023-02-19T21:10:59.851Z,16.30
2023-02-19T21:13:30.944Z,16.80
2023-02-19T21:16:02.397Z,17.10
2023-02-19T21:18:34.355Z,17.40
2023-02-19T21:21:05.758Z,17.10
2023-02-19T21:23:37.492Z,17.20
2023-02-19T21:26:08.355Z,17.00
2023-02-19T21:28:40.728Z,16.80
2023-02-19T21:31:11.940Z,17.40
2023-02-19T21:33:42.932Z,17.40
2023-02-19T21:36:14.060Z,17.20
2023-02-19T21:38:45.215Z,16.90
2023-02-19T21:41:16.141Z,17.30
2023-02-19T21:43:47.048Z,17.50
2023-02-19T21:46:19.369Z,17.50
2023-02-19T21:48:59.140Z,17.70
2023-02-19T21:51:40.110Z,16.90
2023-02-19T21:54:21.722Z,17.20
2023-02-19T21:56:53.835Z,17.10
2023-02-19T21:59:24.736Z,16.50
2023-02-19T22:01:57.135Z,16.90
2023-02-19T22:04:28.029Z,16.70
2023-02-19T22:06:58.944Z,16.10
2023-02-19T22:09:29.855Z,16.90
2023-02-19T22:12:00.744Z,17.10
2023-02-19T22:14:31.629Z,17.10
2023-02-19T22:17:02.506Z,16.50
2023-02-19T22:19:33.384Z,16.90
2023-02-19T22:22:04.646Z,16.60
2023-02-19T22:24:35.544Z,16.50
2023-02-19T22:27:06.573Z,16.50
2023-02-19T22:29:37.445Z,16.80
2023-02-19T22:32:08.491Z,16.80
2023-02-19T22:34:40.683Z,16.30
2023-02-19T22:37:11.795Z,16.10
2023-02-19T22:39:42.728Z,16.10
2023-02-19T22:42:13.757Z,16.70
2023-02-19T22:44:44.911Z,16.50
2023-02-19T22:47:18.590Z,17.10
2023-02-19T22:49:49.445Z,16.70
2023-02-19T22:52:20.434Z,17.00
2023-02-19T22:54:52.742Z,17.40
2023-02-19T22:57:23.632Z,17.50
2023-02-19T22:59:55.037Z,17.30
2023-02-19T23:02:25.935Z,17.50
2023-02-19T23:04:56.844Z,17.10
2023-02-19T23:07:27.757Z,16.40
2023-02-19T23:09:58.716Z,16.60
2023-02-19T23:12:29.692Z,16.40
2023-02-19T23:15:00.573Z,16.20
2023-02-19T23:17:31.441Z,16.60
2023-02-19T23:20:03.246Z,17.00
2023-02-19T23:22:35.242Z,16.90
2023-02-19T23:25:06.594Z,16.40
2023-02-19T23:27:38.126Z,16.30
2023-02-19T23:30:09.654Z,16.60
2023-02-19T23:32:40.577Z,17.10
2023-02-19T23:35:11.553Z,17.10
2023-02-19T23:37:42.517Z,16.30
2023-02-19T23:40:13.854Z,16.60
2023-02-19T23:42:44.756Z,16.50
2023-02-19T23:45:16.875Z,16.70
2023-02-19T23:47:47.824Z,16.70
2023-02-19T23:50:18.928Z,16.40
2023-02-19T23:52:49.918Z,17.30
2023-02-19T23:55:20.784Z,17.20
2023-02-19T23:57:53.436Z,16.90
